Date,TemperatureHighF,TemperatureAvgF,TemperatureLowF,DewpointHighF,DewpointAvgF,DewpointLowF,HumidityHigh,HumidityAvg,HumidityLow,PressureMaxIn,PressureMinIn,WindSpeedMaxMPH,WindSpeedAvgMPH,GustSpeedMaxMPH,PrecipitationSumIn
2012-1-1,37,27,21,25,21,18,89,80,56,0.00,40.00,3,1,5,0.00
2012-1-2,42,32,25,30,24,16,99,76,48,0.00,40.00,2,1,6,0.02
2012-1-3,48,34,29,23,19,15,68,55,32,0.00,40.00,2,0,5,0.08
2012-1-4,51,35,29,22,20,15,73,55,26,0.00,40.00,3,2,7,0.08
2012-1-5,42,34,25,24,21,15,73,58,40,0.00,40.00,3,1,9,0.03
2012-1-6,33,24,16,15,13,9,73,64,46,0.00,40.00,2,0,5,0.01
2012-1-7,33,24,19,20,16,13,95,76,52,0.00,40.00,3,1,9,0.00
2012-1-8,40,28,23,22,18,14,80,65,47,0.00,40.00,2,1,5,0.00
2012-1-9,40,29,22,23,21,19,91,74,48,0.00,40.00,3,1,5,0.01
2012-1-10,31,26,20,26,22,15,95,83,71,0.00,40.00,4,1,12,0.01
2012-1-11,32,20,12,15,8,2,81,63,31,0.00,40.00,2,0,6,0.00
2012-1-12,36,21,12,8,2,-3,59,46,23,0.00,40.00,3,1,6,0.00
2012-1-13,39,24,15,9,5,2,58,45,27,0.00,40.00,2,1,6,0.00
2012-1-14,38,30,24,12,8,4,56,39,27,0.00,40.00,3,0,11,0.00
2012-1-15,29,21,11,16,10,2,85,63,31,0.00,40.00,7,1,17,0.00
2012-1-16,25,15,11,9,5,2,78,65,44,0.00,40.00,3,1,9,0.00
2012-1-17,23,17,13,17,11,4,86,78,63,0.00,40.00,6,1,22,0.00
2012-1-18,31,26,22,31,23,15,100,88,73,0.00,40.00,3,1,19,0.00
2012-1-19,34,32,31,33,32,31,100,99,92,0.00,40.00,4,0,17,0.01
2012-1-20,37,33,32,34,33,31,100,97,81,0.00,40.00,2,0,11,0.01
2012-1-21,36,32,25,36,31,22,100,99,90,0.00,40.00,4,1,16,0.08
2012-1-22,31,23,17,25,21,15,97,91,75,0.00,40.00,3,1,10,0.01
2012-1-23,37,27,16,29,25,14,98,92,69,0.00,40.00,2,1,9,0.02
2012-1-24,26,18,12,25,16,9,97,89,83,0.00,40.00,3,1,6,0.01
2012-1-25,42,33,26,35,31,26,100,94,68,0.00,40.00,2,1,10,0.23
2012-1-26,41,30,19,33,29,16,100,94,72,0.00,40.00,3,1,13,0.14
2012-1-27,32,19,14,17,12,9,90,76,42,0.00,40.00,2,1,8,0.05
2012-1-28,33,19,10,18,12,6,85,76,47,0.00,40.00,3,1,7,0.00
2012-1-29,41,30,23,24,18,14,81,63,35,0.00,40.00,3,1,8,0.02
2012-1-30,40,31,25,32,28,24,100,91,65,0.00,40.00,2,0,7,0.03
2012-1-31,42,26,20,26,22,19,98,86,48,0.00,40.00,2,1,6,0.26
2012-2-1,33,28,25,30,26,21,99,91,83,0.00,40.00,3,2,6,0.01
2012-2-2,40,26,20,28,21,16,96,81,52,0.00,40.00,3,1,12,0.12
2012-2-3,37,22,15,21,15,12,96,76,38,0.00,40.00,2,1,6,0.16
2012-2-4,46,27,19,19,15,11,81,63,28,0.00,40.00,3,1,6,0.12
2012-2-5,47,29,19,17,13,10,82,56,24,0.00,40.00,3,1,6,0.11
2012-2-6,40,26,16,17,13,10,81,60,34,0.00,40.00,3,1,8,0.05
2012-2-7,46,26,18,13,10,4,76,54,19,0.00,40.00,3,1,5,0.07
2012-2-8,34,28,23,29,22,12,99,77,56,0.00,40.00,3,1,5,0.01
2012-2-9,40,33,29,33,31,29,100,92,72,0.00,40.00,1,0,3,0.08
2012-2-10,49,36,31,35,33,31,100,91,58,0.00,40.00,2,0,6,0.32
2012-2-11,39,34,30,34,32,30,100,94,80,0.00,40.00,2,0,5,0.06
2012-2-12,43,32,27,31,29,26,100,89,55,0.00,40.00,3,0,8,0.06
2012-2-13,41,27,20,26,22,19,99,84,47,0.00,40.00,4,1,11,0.01
2012-2-14,37,28,23,24,19,13,95,72,36,0.00,40.00,2,1,8,0.01
2012-2-15,35,25,18,25,18,11,99,76,38,0.00,40.00,6,2,16,0.00
2012-2-16,36,22,14,22,13,8,85,70,36,0.00,40.00,2,1,6,0.00
2012-2-17,43,31,25,25,23,20,91,73,42,0.00,40.00,3,1,9,0.00
2012-2-18,36,28,19,30,22,11,97,80,38,0.00,40.00,4,1,10,0.00
2012-2-19,33,23,17,19,15,13,93,74,44,0.00,40.00,2,1,7,0.00
2012-2-20,31,22,16,23,17,10,95,80,67,0.00,40.00,2,1,5,0.00
2012-2-21,36,30,24,33,28,23,100,93,82,0.00,40.00,1,0,5,0.01
2012-2-22,39,34,26,36,30,12,100,85,44,0.00,40.00,9,4,22,0.72
2012-2-23,34,26,20,23,19,15,95,76,46,0.00,40.00,3,1,9,0.01
2012-2-24,43,27,16,22,17,12,87,68,33,0.00,40.00,4,2,8,0.07
2012-2-25,36,27,21,28,16,8,96,65,42,0.00,40.00,5,3,19,0.01
2012-2-26,30,22,17,15,10,6,78,61,38,0.00,40.00,2,1,9,0.00
2012-2-27,35,22,13,12,6,2,82,54,30,0.00,40.00,4,1,10,0.02
2012-2-28,39,21,10,14,11,6,91,68,31,0.00,40.00,3,1,12,0.02
2012-2-29,37,26,18,25,20,13,96,80,42,0.00,40.00,6,2,19,0.02
2012-3-1,31,22,18,21,18,15,93,85,66,0.00,40.00,3,1,11,0.00
2012-3-2,33,23,15,21,18,12,93,81,54,0.00,40.00,2,0,6,0.00
2012-3-3,38,29,22,32,26,20,100,89,68,0.00,40.00,1,0,4,0.01
2012-3-4,53,34,26,37,30,26,100,88,53,0.00,40.00,2,1,8,0.27
2012-3-5,47,39,30,29,24,19,86,60,37,0.00,40.00,8,4,32,0.23
2012-3-6,32,23,16,30,9,1,93,57,30,0.00,40.00,7,3,18,0.05
2012-3-7,40,24,12,13,6,-1,61,48,26,0.00,40.00,4,1,11,0.09
2012-3-8,56,31,20,22,17,13,75,59,21,0.00,40.00,3,1,7,0.08
2012-3-9,64,37,27,21,17,11,65,48,14,0.00,40.00,2,2,9,0.02
2012-3-10,59,43,32,20,14,-100,48,35,13,0.00,40.00,4,2,14,0.00
2012-3-11,45,35,28,32,26,14,100,70,38,0.00,40.00,8,2,23,0.03
2012-3-12,34,30,24,33,28,20,100,93,85,0.00,40.00,2,1,10,0.01
2012-3-13,37,31,26,34,30,26,100,96,83,0.00,40.00,6,2,21,0.01
2012-3-14,39,31,26,33,30,26,100,96,77,0.00,40.00,2,0,7,0.06
2012-3-15,39,36,32,39,35,32,100,99,94,0.00,40.00,5,2,14,1.61
2012-3-16,46,36,33,39,34,32,100,96,64,0.00,40.00,7,2,21,1.63
2012-3-17,39,33,28,34,30,24,100,88,61,0.00,40.00,4,1,9,0.36
2012-3-18,35,28,24,28,26,22,100,90,71,0.00,40.00,3,1,10,0.01
2012-3-19,32,24,18,22,18,14,97,80,49,0.00,40.00,3,1,12,0.01
2012-3-20,31,26,18,31,22,-100,100,89,81,0.00,40.00,2,2,11,0.01
2012-3-21,41,36,31,37,34,31,100,91,75,0.00,40.00,4,2,19,0.11
2012-3-23,46,32,31,35,13,-100,100,70,43,0.00,40.00,5,-129,13,0.04
2012-3-24,57,37,30,27,23,18,89,60,25,0.00,40.00,2,0,5,0.01
2012-3-25,66,44,33,39,28,20,100,58,19,0.00,40.00,4,1,18,0.01
2012-3-26,39,35,31,39,34,31,100,98,79,0.00,40.00,3,1,8,0.33
2012-3-27,51,35,26,31,28,26,100,79,37,0.00,40.00,3,1,12,0.03
2012-3-28,39,34,32,36,32,26,100,94,66,0.00,40.00,4,2,15,0.26
2012-4-20,63,53,47,44,28,-100,74,47,37,0.00,40.00,5,-68,11,0.00
2012-4-21,70,54,40,41,35,29,82,54,27,0.00,40.00,4,2,14,0.00
2012-4-22,79,59,41,38,32,26,57,40,20,0.00,40.00,3,2,10,0.00
2012-4-23,79,61,49,42,34,29,51,38,24,0.00,40.00,3,2,13,0.00
2012-4-24,70,57,48,47,41,36,80,56,30,0.00,40.00,4,2,18,0.00
2012-4-25,68,55,45,48,36,27,100,55,24,0.00,40.00,4,2,17,0.10
2012-4-26,47,42,32,47,42,32,100,100,100,0.00,40.00,5,2,14,1.11
2012-4-27,42,34,29,32,28,21,100,81,52,0.00,40.00,4,1,11,0.49
2012-4-28,47,38,29,29,26,25,89,65,45,0.00,40.00,5,2,14,0.01
2012-4-29,58,45,33,31,28,24,80,55,31,0.00,40.00,3,1,10,0.00
2012-4-30,46,42,38,45,38,30,100,88,68,0.00,40.00,3,1,20,0.45
2012-5-1,50,39,33,36,30,20,100,74,39,0.00,40.00,3,1,12,0.22
2012-5-2,47,37,30,32,28,22,100,73,41,0.00,40.00,4,1,13,0.11
2012-5-3,42,38,34,41,34,24,100,88,58,0.00,40.00,4,2,9,0.37
2012-5-4,45,35,30,42,34,30,100,99,85,0.00,40.00,3,1,11,0.49
2012-5-5,39,33,27,34,30,25,100,89,74,0.00,40.00,3,0,9,0.31
2012-5-6,54,39,26,30,26,22,93,61,31,0.00,40.00,4,2,12,0.09
2012-5-7,64,46,31,27,23,11,79,46,13,0.00,40.00,3,1,11,0.02
2012-5-8,68,53,39,34,27,20,53,38,23,0.00,40.00,4,2,12,0.00
2012-5-9,67,54,41,38,32,20,62,44,27,0.00,40.00,4,3,13,0.00
2012-5-10,53,42,32,30,14,6,84,36,16,0.00,40.00,5,3,16,0.00
2012-5-11,60,43,29,18,15,8,55,35,14,0.00,40.00,4,2,9,0.00
2012-5-12,69,49,33,24,16,6,48,30,10,0.00,40.00,3,1,12,0.00
2012-5-13,73,58,38,28,21,16,42,26,14,0.00,40.00,4,2,11,0.00
2012-5-14,80,64,46,35,23,15,39,23,12,0.00,40.00,3,2,10,0.00
2012-5-15,82,67,52,38,30,20,41,27,10,0.00,40.00,3,1,9,0.00
2012-5-16,78,64,50,43,36,29,59,38,20,0.00,40.00,4,2,13,0.00
2012-5-17,54,48,42,39,34,29,80,58,44,0.00,40.00,2,1,11,0.00
2012-5-18,59,46,33,36,26,16,100,53,19,0.00,40.00,6,2,15,0.00
2012-5-19,63,49,32,28,22,18,62,37,21,0.00,40.00,4,1,11,0.00
2012-5-20,68,54,42,39,32,26,56,44,26,0.00,40.00,3,1,8,0.00
2012-5-21,73,57,48,50,40,35,99,56,32,0.00,40.00,5,2,15,0.06
2012-5-22,55,47,39,49,42,35,100,85,50,0.00,40.00,6,2,17,0.27
2012-5-23,50,40,33,39,35,30,100,85,50,0.00,40.00,3,1,11,0.22
2012-5-24,47,39,32,36,33,29,100,80,52,0.00,40.00,4,1,12,0.01
2012-5-25,48,40,33,38,34,30,100,81,55,0.00,40.00,3,1,10,0.02
2012-5-26,52,40,32,36,33,30,100,78,54,0.00,40.00,7,2,19,0.01
2012-5-27,50,41,34,42,37,32,100,86,58,0.00,40.00,4,2,13,0.07
2012-5-28,61,47,35,43,37,34,100,73,38,0.00,40.00,3,1,10,0.02
2012-5-29,68,54,42,41,36,29,71,52,26,0.00,40.00,4,2,14,0.01
2012-5-30,67,55,43,42,36,25,87,53,26,0.00,40.00,3,1,11,0.00
2012-5-31,69,57,44,45,39,30,68,51,36,0.00,40.00,4,1,11,0.00
2012-6-1,78,62,47,46,41,39,76,49,28,0.00,40.00,4,1,11,0.00
2012-6-2,66,57,49,51,45,40,79,63,54,0.00,40.00,4,1,13,0.01
2012-6-3,76,55,46,49,44,40,89,68,39,0.00,40.00,5,1,15,0.01
2012-6-4,77,58,45,52,48,44,100,74,37,0.00,40.00,4,2,32,0.07
2012-6-5,47,40,34,45,39,34,100,96,74,0.00,40.00,5,2,13,0.30
2012-6-6,54,41,32,35,31,24,100,72,32,0.00,40.00,5,1,13,0.17
2012-6-7,62,46,32,43,32,26,100,63,32,0.00,40.00,4,2,21,0.03
2012-6-8,59,46,36,44,38,33,100,78,38,0.00,40.00,6,2,22,0.14
2012-6-9,50,40,32,37,31,25,100,76,40,0.00,40.00,7,2,19,0.01
2012-6-10,56,45,36,41,38,36,100,78,52,0.00,40.00,3,0,7,0.03
2012-6-11,67,47,37,39,34,11,92,69,12,0.00,40.00,4,1,7,0.01
2012-6-12,69,63,48,50,39,-1,99,45,12,0.00,40.00,7,2,18,0.28
2012-6-13,65,53,41,48,40,21,100,67,28,0.00,40.00,5,2,15,0.17
2012-6-14,69,55,39,32,27,17,59,35,19,0.00,40.00,4,1,13,0.01
2012-6-15,70,57,45,41,36,31,80,51,24,0.00,40.00,7,2,15,0.00
2012-6-16,74,59,45,43,35,28,68,45,21,0.00,40.00,4,1,11,0.00
2012-6-17,76,63,53,50,40,28,61,43,27,0.00,40.00,6,3,19,0.00
2012-6-18,57,50,42,40,35,29,76,58,43,0.00,40.00,5,3,17,0.00
2012-6-19,56,45,35,37,34,31,86,67,44,0.00,40.00,4,2,14,0.00
2012-6-20,69,55,36,38,35,29,91,51,23,0.00,40.00,5,2,11,0.00
2012-6-21,81,61,46,39,36,32,63,44,20,0.00,40.00,3,2,11,0.00
2012-6-22,80,69,59,45,38,29,46,33,21,0.00,40.00,5,2,18,0.00
2012-6-23,71,61,50,47,42,36,87,54,29,0.00,40.00,4,2,14,0.00
2012-6-24,75,62,47,51,41,26,99,55,22,0.00,40.00,5,2,12,0.00
2012-6-25,78,62,47,48,41,29,89,53,20,0.00,40.00,4,2,14,0.00
2012-6-26,55,47,39,43,40,35,99,79,55,0.00,40.00,4,2,16,0.51
2012-6-27,70,53,36,39,35,28,90,55,25,0.00,40.00,3,1,10,0.03
2012-6-28,82,63,46,44,35,30,62,38,17,0.00,40.00,5,2,13,0.00
2012-6-29,73,62,52,49,43,33,75,52,36,0.00,40.00,3,1,9,0.00
2012-6-30,85,70,49,50,43,34,82,43,21,0.00,40.00,4,2,14,0.00
2012-7-1,75,61,54,54,51,45,92,72,36,0.00,40.00,4,2,12,0.00
2012-7-2,82,66,48,53,46,39,99,57,23,0.00,40.00,4,2,13,0.00
2012-7-3,72,63,51,52,40,29,86,48,22,0.00,40.00,7,2,15,0.00
2012-7-4,78,59,41,41,34,26,77,45,16,0.00,40.00,4,2,10,0.00
2012-7-5,82,65,50,47,41,33,67,45,17,0.00,40.00,5,2,13,0.00
2012-7-6,88,69,54,49,44,34,68,44,16,0.00,40.00,4,2,11,0.00
2012-7-7,91,75,58,47,41,31,54,33,12,0.00,40.00,4,2,10,0.00
2012-7-8,95,77,61,48,41,31,56,31,12,0.00,40.00,4,2,11,0.00
2012-7-9,93,76,63,53,45,38,52,35,21,0.00,40.00,7,2,14,0.02
2012-7-10,89,77,61,52,48,42,56,38,25,0.00,40.00,5,2,11,0.02
2012-7-11,90,75,61,55,49,39,68,44,18,0.00,40.00,6,2,12,0.00
2012-7-12,96,79,64,51,44,39,53,32,16,0.00,40.00,2,1,10,0.00
2012-7-13,78,71,63,57,51,42,61,50,32,0.00,40.00,4,1,11,0.00
2012-7-14,81,66,56,58,52,47,95,64,38,0.00,40.00,5,2,16,0.07
2012-7-15,78,63,52,60,52,46,100,73,32,0.00,40.00,4,2,12,0.21
2012-7-16,77,63,56,56,50,45,79,64,46,0.00,40.00,6,2,14,0.03
2012-7-17,85,68,52,52,48,44,79,52,28,0.00,40.00,4,2,11,0.02
2012-7-18,87,71,57,54,46,36,75,46,19,0.00,40.00,4,2,13,0.00
2012-7-19,92,74,59,51,42,34,60,36,13,0.00,40.00,4,1,13,0.00
2012-7-20,86,74,62,54,43,38,74,34,20,0.00,40.00,6,2,19,0.00
2012-7-21,86,69,53,54,44,31,86,50,15,0.00,40.00,4,2,12,0.00
2012-7-22,91,73,55,50,41,33,65,39,14,0.00,40.00,5,2,15,0.00
2012-7-23,80,68,55,49,36,18,65,38,11,0.00,40.00,4,2,14,0.00
2012-7-24,84,65,48,43,34,23,70,39,11,0.00,40.00,3,1,12,0.00
2012-7-25,85,69,53,47,39,35,59,36,18,0.00,40.00,3,1,10,0.00
2012-7-26,92,74,59,47,40,27,57,33,12,0.00,40.00,5,2,13,0.00
2012-7-27,90,75,63,49,44,35,52,36,16,0.00,40.00,4,2,14,0.00
2012-7-28,88,72,59,49,44,39,60,40,19,0.00,40.00,6,2,16,0.00
2012-7-29,90,72,57,43,38,30,48,33,12,0.00,40.00,4,2,11,0.00
2012-7-30,89,73,60,44,40,36,49,33,17,0.00,40.00,5,2,12,0.00
2012-7-31,88,72,56,46,38,29,53,33,12,0.00,40.00,6,2,16,0.00
2012-8-1,82,67,57,40,36,26,49,34,14,0.00,40.00,4,2,12,0.00
2012-8-2,81,73,62,40,32,27,38,24,15,0.00,40.00,5,3,14,0.00
2012-8-3,76,64,51,42,36,30,61,38,19,0.00,40.00,7,3,18,0.00
2012-8-4,83,68,51,39,34,29,54,30,16,0.00,40.00,5,2,12,0.00
2012-8-5,91,75,57,44,35,28,51,27,12,0.00,40.00,3,2,11,0.00
2012-8-6,90,76,64,52,39,32,49,29,15,0.00,40.00,4,2,11,0.00
2012-8-7,95,77,61,46,39,32,51,30,11,0.00,40.00,4,2,10,0.00
2012-8-8,91,77,65,48,40,34,45,29,15,0.00,40.00,4,2,12,0.00
2012-8-9,92,74,60,48,40,29,52,32,12,0.00,40.00,3,2,11,0.00
2012-8-10,87,72,62,41,37,33,44,29,15,0.00,40.00,4,2,12,0.00
2012-8-11,87,71,58,40,35,29,47,29,13,0.00,40.00,4,2,11,0.00
2012-8-12,92,74,55,43,31,21,53,26,8,0.00,40.00,3,1,10,0.00
2012-8-13,92,76,59,40,32,25,41,22,9,0.00,40.00,4,2,12,0.00
2012-8-14,91,74,57,40,28,19,46,22,8,0.00,40.00,5,2,13,0.00
2012-8-15,87,74,59,44,39,24,54,30,17,0.00,40.00,5,2,13,0.00
2012-8-16,86,70,56,47,41,30,67,39,16,0.00,40.00,4,1,11,0.00
2012-8-17,88,72,58,45,38,26,57,33,12,0.00,40.00,5,2,13,0.00
2012-8-18,91,74,59,40,31,21,36,22,9,0.00,40.00,4,1,14,0.00
2012-8-19,86,73,60,43,36,27,46,28,17,0.00,40.00,4,2,18,0.00
2012-8-20,87,71,60,47,42,38,54,37,19,0.00,40.00,3,1,10,0.00
2012-8-21,83,71,60,47,43,37,60,39,22,0.00,40.00,4,2,12,0.00
2012-8-22,83,68,55,47,37,19,71,38,11,0.00,40.00,4,2,11,0.00
2012-8-23,82,66,51,36,30,20,54,30,10,0.00,40.00,5,2,17,0.00
2012-8-24,74,58,46,32,26,16,55,33,11,0.00,40.00,4,2,13,0.00
2012-8-25,81,63,45,31,24,19,52,27,10,0.00,40.00,4,1,10,0.00
2012-8-26,86,67,52,37,31,23,42,27,15,0.00,40.00,4,2,8,0.00
2012-8-27,85,71,60,48,41,31,60,37,16,0.00,40.00,5,1,11,0.00
2012-8-28,85,69,55,42,30,13,53,29,10,0.00,40.00,5,2,13,0.00
2012-8-29,74,61,48,42,34,27,73,40,18,0.00,40.00,5,2,14,0.00
2012-8-30,80,61,45,38,31,23,69,39,12,0.00,40.00,4,2,15,0.00
2012-8-31,82,66,52,39,32,25,47,30,15,0.00,40.00,4,2,14,0.00
2012-9-1,78,63,53,40,31,13,49,33,11,0.00,40.00,5,2,16,0.00
2012-9-2,76,59,43,33,21,10,53,28,8,0.00,40.00,4,2,13,0.00
2012-9-3,79,61,44,28,21,14,49,24,10,0.00,40.00,5,2,14,0.00
2012-9-4,76,62,49,34,29,24,44,31,18,0.00,40.00,5,2,15,0.00
2012-9-5,79,63,46,36,30,26,65,34,14,0.00,40.00,4,2,12,0.00
2012-9-6,76,63,51,36,32,29,51,32,19,0.00,40.00,4,2,11,0.00
2012-9-7,79,63,47,39,31,16,69,37,10,0.00,40.00,4,2,12,0.00
2012-9-8,83,67,50,38,31,27,50,29,13,0.00,40.00,4,2,12,0.00
2012-9-9,82,67,55,40,34,27,47,30,17,0.00,40.00,5,3,19,0.00
2012-9-10,71,59,47,34,28,22,52,32,20,0.00,40.00,5,2,14,0.00
2012-9-11,63,49,36,34,24,14,63,41,16,0.00,40.00,5,2,14,0.00
2012-9-12,69,50,37,23,18,15,48,30,13,0.00,40.00,4,2,11,0.00
2012-9-13,76,58,41,25,21,16,53,27,12,0.00,40.00,4,2,11,0.00
2012-9-14,83,66,50,28,20,13,31,19,7,0.00,40.00,5,2,12,0.00
2012-9-15,80,68,53,31,22,14,33,19,12,0.00,40.00,4,2,13,0.00
2012-9-16,73,62,53,37,32,23,50,35,18,0.00,40.00,6,2,14,0.00
2012-9-17,75,61,47,34,28,23,56,31,15,0.00,40.00,4,1,9,0.00
2012-9-18,79,62,48,31,25,20,42,26,11,0.00,40.00,3,2,9,0.00
2012-9-19,80,64,50,29,25,22,40,24,12,0.00,40.00,6,2,16,0.00
2012-9-20,81,65,50,33,26,22,42,24,12,0.00,40.00,5,2,10,0.00
2012-9-21,77,62,53,33,29,26,42,30,17,0.00,40.00,3,2,8,0.00
2012-9-22,78,61,50,31,28,25,40,29,15,0.00,40.00,4,2,10,0.00
2012-9-23,64,57,48,49,39,33,100,55,32,0.00,40.00,4,2,11,0.23
2012-9-24,66,54,45,52,46,41,100,78,47,0.00,40.00,3,1,13,0.24
2012-9-25,72,59,50,45,42,41,73,56,35,0.00,40.00,4,1,12,0.01
2012-9-26,73,58,47,44,40,32,80,53,28,0.00,40.00,4,1,12,0.00
2012-9-27,75,58,46,40,35,30,70,46,21,0.00,40.00,4,2,10,0.00
2012-9-28,72,57,49,43,37,30,62,48,26,0.00,40.00,4,2,7,0.00
2012-9-29,75,60,48,42,38,33,69,47,22,0.00,40.00,5,2,11,0.00
2012-9-30,74,59,48,42,35,27,74,44,19,0.00,40.00,4,2,11,0.00
2012-10-1,77,59,47,36,33,30,55,39,19,0.00,40.00,4,1,10,0.00
2012-10-2,72,58,47,36,28,12,60,34,15,0.00,40.00,4,2,12,0.00
2012-10-3,54,42,29,19,13,4,42,31,19,0.00,40.00,4,2,18,0.00
2012-10-4,55,40,30,23,17,14,73,42,20,0.00,40.00,4,2,12,0.00
2012-10-5,53,38,29,18,16,8,60,43,16,0.00,40.00,5,1,11,0.00
2012-10-6,55,40,29,16,14,9,53,37,18,0.00,40.00,4,2,11,0.00
2012-10-7,59,44,32,19,15,10,57,34,16,0.00,40.00,4,2,10,0.00
2012-10-8,64,47,34,22,17,12,56,33,14,0.00,40.00,3,2,10,0.00
2012-10-9,66,51,39,28,21,13,46,31,21,0.00,40.00,4,1,12,0.00
2012-10-10,66,53,40,28,26,22,54,37,23,0.00,40.00,3,2,10,0.00
2012-10-11,70,52,39,31,26,19,62,40,16,0.00,40.00,3,2,8,0.00
2012-10-12,71,55,43,28,24,20,47,31,15,0.00,40.00,4,2,12,0.00
2012-10-13,55,48,41,45,38,24,99,72,34,0.00,40.00,3,1,9,0.10
2012-10-14,62,50,41,43,40,38,93,70,46,0.00,40.00,4,2,12,0.01
2012-10-15,55,49,44,49,45,36,100,87,54,0.00,40.00,3,1,9,0.28
2012-10-16,51,46,34,50,34,14,100,68,28,0.00,40.00,9,4,25,0.67
2012-10-17,48,37,29,27,23,17,87,58,38,0.00,40.00,4,1,9,0.40
2012-10-18,58,42,31,29,26,19,86,59,26,0.00,40.00,3,2,7,0.00
2012-10-19,46,44,42,41,33,23,93,66,42,0.00,40.00,3,1,6,0.07
2012-10-20,46,40,30,41,36,23,99,87,67,0.00,40.00,4,1,11,0.16
2012-10-21,46,34,26,26,22,18,86,65,37,0.00,40.00,3,1,9,0.03
2012-10-22,35,32,29,33,26,18,98,82,59,0.00,40.00,5,2,8,0.16
2012-10-23,35,28,25,31,27,24,98,95,85,0.00,40.00,2,0,10,0.02
2012-10-24,37,28,21,30,26,20,98,93,77,0.00,40.00,2,1,5,0.10
2012-10-25,39,30,26,32,28,25,98,92,72,0.00,40.00,2,1,8,0.31
2012-10-26,30,26,22,28,25,21,98,94,89,0.00,40.00,3,2,5,0.01
2012-10-27,35,31,28,33,30,27,99,96,89,0.00,40.00,2,1,6,0.10
2012-10-28,42,38,32,42,38,32,100,100,99,0.00,40.00,3,1,5,1.08
2012-10-29,50,43,41,48,43,41,100,98,84,0.00,40.00,3,2,12,0.36
2012-10-30,54,44,38,46,41,38,100,90,71,0.00,40.00,4,2,8,0.01
2012-10-31,59,50,44,41,36,28,78,61,39,0.00,40.00,4,2,15,0.00
2012-11-1,54,42,37,41,37,28,99,82,36,0.00,40.00,6,2,21,0.10
2012-11-2,47,39,32,37,34,32,98,86,64,0.00,40.00,4,2,6,0.01
2012-11-3,47,41,36,38,35,32,87,79,64,0.00,40.00,3,1,7,0.01
2012-11-4,56,45,39,40,36,34,88,72,51,0.00,40.00,3,1,7,0.00
2012-11-5,58,46,37,43,39,35,94,79,57,0.00,40.00,3,2,6,0.00
2012-11-6,62,48,39,43,40,36,95,76,48,0.00,40.00,3,2,7,0.00
2012-11-7,49,41,28,39,35,28,98,78,61,0.00,40.00,2,1,10,0.00
2012-11-8,37,31,28,36,31,27,99,98,96,0.00,40.00,2,1,8,0.32
2012-11-9,30,25,20,28,24,18,98,94,88,0.00,40.00,4,1,10,0.05
2012-11-10,28,20,16,21,17,11,93,87,75,0.00,40.00,2,0,9,0.01
2012-11-11,24,18,12,18,14,9,90,85,74,0.00,40.00,3,1,5,0.01
2012-11-12,29,24,20,25,21,16,96,88,76,0.00,40.00,3,1,5,0.00
2012-11-13,35,30,25,32,29,24,99,96,88,0.00,40.00,2,0,4,0.09
2012-11-14,38,31,26,34,31,24,99,97,84,0.00,40.00,1,0,5,0.09
2012-11-15,37,28,24,32,27,23,97,94,83,0.00,40.00,3,1,5,0.02
2012-11-16,40,34,31,38,34,30,100,97,90,0.00,40.00,3,1,6,0.01
2012-11-17,47,37,34,38,36,32,100,94,69,0.00,40.00,4,2,10,0.40
2012-11-18,39,33,29,39,32,28,100,95,83,0.00,40.00,4,1,13,0.56
2012-11-19,38,35,30,38,34,29,100,97,90,0.00,40.00,3,1,11,0.20
2012-11-20,40,39,38,40,39,37,100,98,93,0.00,40.00,3,2,11,0.43
2012-11-21,39,32,27,39,32,23,100,96,83,0.00,40.00,5,2,22,1.21
2012-11-22,39,27,21,27,23,20,94,85,59,0.00,40.00,3,1,6,0.14
2012-11-23,41,30,25,29,25,20,94,83,43,0.00,40.00,3,2,5,0.01
2012-11-24,36,33,31,35,32,25,99,95,72,0.00,40.00,2,0,4,0.22
2012-11-25,37,29,20,32,26,16,100,89,70,0.00,40.00,2,0,7,0.22
2012-11-26,20,18,17,17,15,14,90,87,83,0.00,40.00,3,2,6,0.18
2012-11-27,43,31,24,30,26,22,94,84,61,0.00,40.00,3,2,6,0.01
2012-11-28,45,34,28,33,28,23,97,81,45,0.00,40.00,5,2,12,0.03
2012-11-29,46,37,33,37,35,33,100,92,67,0.00,40.00,3,2,12,0.10
2012-11-30,37,36,32,37,36,32,100,99,95,0.00,40.00,4,1,12,1.36
2012-12-1,38,36,34,37,36,34,100,98,90,0.00,40.00,4,2,17,0.39
2012-12-2,41,35,28,40,33,21,100,93,69,0.00,40.00,9,2,26,1.25
2012-12-3,34,30,28,31,27,25,94,87,72,0.00,40.00,4,1,11,0.01
2012-12-4,37,32,30,37,32,27,100,96,82,0.00,40.00,4,2,13,0.38
2012-12-5,40,36,29,39,36,28,100,97,89,0.00,40.00,5,2,18,0.94
2012-12-6,31,27,24,30,24,-100,99,94,90,0.00,40.00,3,0,9,0.01
2012-12-7,28,26,25,26,24,23,97,91,85,0.00,40.00,5,1,14,0.01
2012-12-8,25,21,18,24,19,14,96,92,88,0.00,40.00,5,1,15,0.00
2012-12-9,23,16,8,18,12,4,93,87,79,0.00,40.00,2,1,4,0.00
2012-12-10,32,28,20,28,26,18,97,91,84,0.00,40.00,3,1,6,0.05
2012-12-11,36,30,27,30,28,26,98,93,78,0.00,40.00,3,1,8,0.07
2012-12-12,32,29,24,31,28,21,99,96,88,0.00,40.00,1,0,6,0.01
2012-12-13,37,23,16,26,21,14,96,91,64,0.00,40.00,2,0,5,0.20
2012-12-14,30,27,25,27,25,23,97,93,84,0.00,40.00,2,1,7,0.01
2012-12-15,26,23,21,23,21,19,97,92,78,0.00,40.00,2,0,9,0.01
2012-12-16,32,24,19,24,22,17,96,90,71,0.00,40.00,3,1,8,0.01
2012-12-17,32,28,19,31,24,13,99,87,70,0.00,40.00,6,3,25,0.01
2012-12-18,27,16,11,16,11,8,91,81,58,0.00,40.00,3,1,7,0.04
2012-12-19,22,14,9,17,11,6,89,86,79,0.00,40.00,4,1,7,0.01
2012-12-20,34,24,17,18,15,13,84,70,50,0.00,40.00,4,2,13,0.10
2012-12-21,33,30,28,29,25,17,98,81,60,0.00,40.00,4,2,13,0.01
2012-12-22,33,29,25,30,27,24,97,91,71,0.00,40.00,6,2,14,0.01
2012-12-23,30,26,24,28,24,23,97,94,87,0.00,40.00,4,1,10,0.01
2012-12-24,30,24,20,29,22,18,98,90,72,0.00,40.00,2,1,10,0.06
2012-12-25,23,19,13,20,16,10,94,90,83,0.00,40.00,3,2,7,0.01
2012-12-26,30,23,20,24,21,18,95,90,68,0.00,40.00,2,0,5,0.01
2012-12-27,31,24,21,25,21,20,96,91,71,0.00,40.00,2,0,7,0.06
2012-12-28,27,22,15,21,19,13,96,88,75,0.00,40.00,2,0,5,0.02
2012-12-29,26,18,13,17,14,10,94,84,64,0.00,40.00,2,1,5,0.01
2012-12-30,27,16,11,16,12,8,93,85,63,0.00,40.00,3,0,9,0.14
2012-12-31,23,14,11,13,10,8,90,84,60,0.00,40.00,2,0,6,0.06
2013-1-1,24,12,5,14,8,1,93,84,65,0.00,40.00,2,0,5,0.07